createdAt,value
2022-10-15T00:00:47.465Z,5.58
2022-10-15T00:03:16.190Z,9.68
2022-10-15T00:05:46.764Z,6.00
2022-10-15T00:08:24.161Z,9.28
2022-10-15T00:10:55.800Z,5.87
2022-10-15T00:13:24.507Z,6.72
2022-10-15T00:15:53.168Z,6.75
2022-10-15T00:18:24.685Z,11.90
2022-10-15T00:20:53.438Z,7.42
2022-10-15T00:23:22.087Z,13.85
2022-10-15T00:25:50.783Z,9.18
2022-10-15T00:28:19.428Z,10.28
2022-10-15T00:30:51.122Z,9.55
2022-10-15T00:33:19.958Z,9.10
2022-10-15T00:35:54.584Z,9.75
2022-10-15T00:38:23.175Z,9.73
2022-10-15T00:40:51.673Z,7.55
2022-10-15T00:43:38.253Z,7.20
2022-10-15T00:49:06.488Z,11.45
2022-10-15T00:51:40.892Z,6.62
2022-10-15T00:54:11.339Z,6.00
2022-10-15T00:56:44.715Z,8.23
2022-10-15T00:59:15.161Z,6.80
2022-10-15T01:01:47.164Z,8.63
2022-10-15T01:04:21.473Z,6.42
2022-10-15T01:06:50.359Z,8.28
2022-10-15T01:09:19.225Z,6.78
2022-10-15T01:11:55.112Z,9.68
2022-10-15T01:14:50.022Z,9.93
2022-10-15T01:17:39.155Z,7.45
2022-10-15T01:20:31.774Z,9.65
2022-10-15T01:23:25.213Z,8.10
2022-10-15T01:26:23.443Z,9.43
2022-10-15T01:29:14.450Z,6.42
2022-10-15T01:32:06.846Z,10.40
2022-10-15T01:34:52.553Z,9.50
2022-10-15T01:37:41.512Z,7.87
2022-10-15T01:40:15.942Z,9.08
2022-10-15T01:43:05.864Z,8.00
2022-10-15T01:45:40.586Z,6.10
2022-10-15T01:48:15.181Z,8.55
2022-10-15T01:50:49.751Z,6.95
2022-10-15T01:53:25.211Z,10.70
2022-10-15T01:56:05.298Z,9.50
2022-10-15T01:58:31.893Z,8.15
2022-10-15T02:01:05.976Z,7.35
2022-10-15T02:03:36.106Z,7.47
2022-10-15T02:06:10.409Z,6.28
2022-10-15T02:09:00.145Z,6.50
2022-10-15T02:11:32.970Z,6.72
2022-10-15T02:14:22.455Z,6.00
2022-10-15T02:17:06.297Z,6.87
2022-10-15T02:19:46.853Z,6.58
2022-10-15T02:22:27.645Z,8.90
2022-10-15T02:25:02.149Z,7.35
2022-10-15T02:27:37.373Z,7.80
2022-10-15T02:30:09.179Z,6.35
2022-10-15T02:32:49.637Z,6.97
2022-10-15T02:35:22.802Z,7.83
2022-10-15T02:38:06.450Z,8.33
2022-10-15T02:40:46.508Z,14.10
2022-10-15T02:43:28.667Z,5.95
2022-10-15T02:46:12.238Z,9.45
2022-10-15T02:48:47.530Z,5.62
2022-10-15T02:51:25.584Z,6.20
2022-10-15T02:53:57.099Z,7.97
2022-10-15T02:59:39.777Z,7.00
2022-10-15T03:02:21.260Z,9.15
2022-10-15T03:05:06.521Z,8.08
2022-10-15T03:07:46.648Z,7.22
2022-10-15T03:12:20.237Z,5.62
2022-10-15T03:12:44.915Z,8.10
2022-10-15T03:18:19.570Z,6.72
2022-10-15T03:21:00.786Z,9.90
2022-10-15T03:23:39.874Z,11.05
2022-10-15T03:26:09.054Z,8.85
2022-10-15T03:28:41.159Z,7.67
2022-10-15T03:31:21.327Z,8.13
2022-10-15T03:33:51.829Z,7.35
2022-10-15T03:36:20.825Z,9.58
2022-10-15T03:38:52.630Z,10.65
2022-10-15T03:41:21.349Z,9.73
2022-10-15T03:43:51.851Z,9.85
2022-10-15T03:46:20.661Z,9.58
2022-10-15T03:48:54.810Z,10.03
2022-10-15T03:51:25.567Z,9.65
2022-10-15T03:53:54.355Z,10.18
2022-10-15T03:56:23.184Z,8.35
2022-10-15T03:58:51.967Z,11.03
2022-10-15T04:01:20.929Z,10.05
2022-10-15T04:03:52.485Z,11.73
2022-10-15T04:06:22.592Z,9.70
2022-10-15T04:11:23.466Z,9.65
2022-10-15T04:13:58.373Z,10.90
2022-10-15T04:16:28.135Z,13.53
2022-10-15T04:18:58.409Z,9.45
2022-10-15T04:21:35.241Z,11.73
2022-10-15T04:24:07.077Z,13.62
2022-10-15T04:26:38.833Z,11.35
2022-10-15T04:29:07.839Z,11.08
2022-10-15T04:31:39.095Z,10.50
2022-10-15T04:34:08.023Z,12.15
2022-10-15T04:36:41.643Z,10.95
2022-10-15T04:39:15.008Z,9.60
2022-10-15T04:41:47.879Z,10.95
2022-10-15T04:44:16.788Z,10.80
2022-10-15T04:46:50.715Z,11.15
2022-10-15T04:49:27.204Z,13.83
2022-10-15T04:52:03.598Z,11.97
2022-10-15T04:54:38.067Z,11.45
2022-10-15T04:57:11.891Z,10.88
2022-10-15T04:59:42.434Z,17.07
2022-10-15T05:02:17.213Z,10.40
2022-10-15T05:04:58.332Z,12.25
2022-10-15T05:07:47.808Z,11.68
2022-10-15T05:10:24.961Z,16.55
2022-10-15T05:12:59.959Z,8.93
2022-10-15T05:15:30.980Z,13.03
2022-10-15T05:18:06.580Z,10.15
2022-10-15T05:20:50.334Z,10.98
2022-10-15T05:26:56.584Z,13.32
2022-10-15T05:29:25.526Z,12.85
2022-10-15T05:31:58.129Z,15.40
2022-10-15T05:34:30.897Z,16.82
2022-10-15T05:37:01.676Z,14.95
2022-10-15T05:39:33.511Z,13.08
2022-10-15T05:42:02.325Z,11.35
2022-10-15T05:44:32.235Z,13.80
2022-10-15T05:47:01.183Z,14.60
2022-10-15T05:49:32.784Z,11.43
2022-10-15T05:52:06.054Z,12.98
2022-10-15T05:54:34.834Z,17.02
2022-10-15T05:57:12.475Z,14.70
2022-10-15T05:59:44.855Z,14.83
2022-10-15T06:02:15.402Z,13.40
2022-10-15T06:04:44.699Z,14.73
2022-10-15T06:08:08.339Z,10.25
2022-10-15T06:09:53.510Z,15.83
2022-10-15T06:12:22.371Z,9.93
2022-10-15T06:15:32.058Z,13.03
2022-10-15T06:18:11.925Z,10.70
2022-10-15T06:20:43.295Z,11.93
2022-10-15T06:23:14.806Z,17.42
2022-10-15T06:25:46.199Z,13.88
2022-10-15T06:28:16.514Z,13.38
2022-10-15T06:30:46.902Z,13.65
2022-10-15T06:33:21.309Z,8.95
2022-10-15T06:35:55.748Z,9.78
2022-10-15T06:38:27.286Z,12.90
2022-10-15T06:40:56.011Z,10.65
2022-10-15T06:43:29.891Z,8.15
2022-10-15T06:46:00.840Z,12.25
2022-10-15T06:48:31.643Z,12.70
2022-10-15T06:51:01.941Z,17.57
2022-10-15T06:53:31.927Z,13.78
2022-10-15T06:56:02.097Z,14.35
2022-10-15T06:58:31.015Z,8.43
2022-10-15T07:01:04.703Z,16.32
2022-10-15T07:03:33.597Z,16.73
2022-10-15T07:06:09.748Z,16.25
2022-10-15T07:08:40.607Z,11.03
2022-10-15T07:11:12.842Z,13.10
2022-10-15T07:13:44.392Z,11.80
2022-10-15T07:16:16.368Z,11.75
2022-10-15T07:18:44.918Z,15.15
2022-10-15T07:21:15.461Z,12.68
2022-10-15T07:23:45.782Z,12.15
2022-10-15T07:26:14.429Z,14.63
2022-10-15T07:28:45.890Z,11.43
2022-10-15T07:31:14.734Z,13.32
2022-10-15T07:33:44.884Z,13.32
2022-10-15T07:36:13.643Z,11.10
2022-10-15T07:38:42.705Z,16.48
2022-10-15T07:41:12.247Z,11.93
2022-10-15T07:43:40.959Z,13.65
2022-10-15T07:46:19.153Z,11.50
2022-10-15T07:48:47.980Z,8.98
2022-10-15T07:53:47.561Z,8.80
2022-10-15T07:56:18.003Z,11.63
2022-10-15T07:58:52.924Z,12.47
2022-10-15T08:01:26.848Z,19.17
2022-10-15T08:04:02.480Z,9.65
2022-10-15T08:06:33.618Z,11.12
2022-10-15T08:09:02.445Z,11.45
2022-10-15T08:11:32.609Z,12.10
2022-10-15T08:17:10.312Z,17.23
2022-10-15T08:19:55.106Z,13.68
2022-10-15T08:22:29.632Z,20.97
2022-10-15T08:25:03.997Z,19.10
2022-10-15T08:27:45.887Z,15.35
2022-10-15T08:30:19.225Z,15.75
2022-10-15T08:33:13.967Z,15.35
2022-10-15T08:35:58.628Z,18.45
2022-10-15T08:38:27.518Z,15.53
2022-10-15T08:40:58.923Z,12.00
2022-10-15T08:43:33.123Z,12.63
2022-10-15T08:46:04.770Z,11.15
2022-10-15T08:48:39.179Z,17.55
2022-10-15T08:51:17.101Z,13.18
2022-10-15T08:53:49.664Z,14.80
2022-10-15T08:56:27.040Z,12.13
2022-10-15T08:59:07.750Z,10.20
2022-10-15T09:02:04.309Z,10.20
2022-10-15T09:05:05.484Z,9.08
2022-10-15T09:10:57.162Z,7.78
2022-10-15T09:16:23.315Z,8.95
2022-10-15T09:22:06.038Z,12.47
2022-10-15T09:24:39.626Z,7.72
2022-10-15T09:27:20.089Z,14.58
2022-10-15T09:30:09.989Z,7.53
2022-10-15T09:32:53.494Z,11.83
2022-10-15T09:35:32.163Z,15.45
2022-10-15T09:38:11.430Z,8.68
2022-10-15T09:42:11.154Z,7.80
2022-10-15T09:51:01.273Z,6.10
2022-10-15T09:54:02.660Z,7.33
2022-10-15T09:56:47.925Z,7.42
2022-10-15T09:59:21.451Z,8.50
2022-10-15T10:02:14.327Z,8.30
2022-10-15T10:04:43.262Z,9.00
2022-10-15T10:07:32.277Z,12.70
2022-10-15T10:10:09.969Z,8.75
2022-10-15T10:12:48.602Z,8.93
2022-10-15T10:15:45.686Z,7.55
2022-10-15T10:18:32.545Z,6.87
2022-10-15T10:21:34.822Z,7.08
2022-10-15T10:24:08.649Z,10.82
2022-10-15T10:29:45.436Z,13.20
2022-10-15T10:32:35.247Z,12.43
2022-10-15T10:40:58.447Z,5.90
2022-10-15T10:43:38.219Z,7.17
2022-10-15T10:46:18.210Z,9.58
2022-10-15T10:48:53.028Z,8.85
2022-10-15T10:51:27.403Z,6.78
2022-10-15T10:54:14.738Z,5.42
2022-10-15T10:56:48.759Z,9.65
2022-10-15T10:59:26.424Z,8.48
2022-10-15T11:01:57.565Z,5.95
2022-10-15T11:04:34.924Z,6.05
2022-10-15T11:07:06.929Z,7.87
2022-10-15T11:09:55.435Z,5.90
2022-10-15T11:12:42.650Z,8.85
2022-10-15T11:15:23.353Z,7.78
2022-10-15T11:18:25.486Z,6.78
2022-10-15T11:21:30.289Z,5.78
2022-10-15T11:24:18.361Z,10.10
2022-10-15T11:27:09.768Z,7.62
2022-10-15T11:30:18.425Z,5.53
2022-10-15T11:33:06.736Z,5.72
2022-10-15T11:35:54.653Z,5.40
2022-10-15T11:38:33.422Z,3.70
2022-10-15T11:41:19.539Z,14.83
2022-10-15T11:44:11.087Z,4.85
2022-10-15T11:46:57.583Z,4.70
2022-10-15T11:49:31.360Z,4.70
2022-10-15T11:52:10.769Z,5.35
2022-10-15T11:55:00.995Z,6.65
2022-10-15T11:57:32.675Z,6.42
2022-10-15T12:00:32.968Z,5.72
2022-10-15T12:03:16.712Z,5.03
2022-10-15T12:05:51.201Z,3.98
2022-10-15T12:08:21.361Z,4.70
2022-10-15T12:10:55.552Z,6.60
2022-10-15T12:13:39.289Z,6.75
2022-10-15T12:16:18.072Z,4.62
2022-10-15T12:19:13.929Z,4.65
2022-10-15T12:21:54.533Z,5.37
2022-10-15T12:24:51.726Z,9.63
2022-10-15T12:27:33.803Z,2.77
2022-10-15T12:30:07.870Z,9.20
2022-10-15T12:32:46.757Z,8.88
2022-10-15T12:35:24.621Z,6.78
2022-10-15T12:37:55.180Z,6.40
2022-10-15T12:40:29.685Z,5.75
2022-10-15T12:43:05.482Z,4.58
2022-10-15T12:45:40.758Z,5.12
2022-10-15T12:48:21.966Z,5.10
2022-10-15T12:50:50.889Z,5.05
2022-10-15T12:53:34.618Z,5.83
2022-10-15T12:56:15.171Z,5.00
2022-10-15T12:58:52.242Z,5.78
2022-10-15T13:01:23.898Z,2.98
2022-10-15T13:03:56.286Z,5.12
2022-10-15T13:06:30.449Z,6.12
2022-10-15T13:09:14.218Z,10.08
2022-10-15T13:11:54.655Z,4.85
2022-10-15T13:14:44.705Z,6.15
2022-10-15T13:17:21.772Z,4.42
2022-10-15T13:20:05.217Z,4.50
2022-10-15T13:22:38.160Z,7.22
2022-10-15T13:25:17.811Z,6.15
2022-10-15T13:27:53.855Z,5.97
2022-10-15T13:30:36.501Z,6.30
2022-10-15T13:33:09.029Z,10.00
2022-10-15T13:35:40.018Z,5.33
2022-10-15T13:38:10.392Z,6.53
2022-10-15T13:40:39.849Z,7.72
2022-10-15T13:43:25.929Z,6.00
2022-10-15T13:46:05.723Z,9.25
2022-10-15T13:48:38.718Z,5.03
2022-10-15T13:51:09.501Z,5.50
2022-10-15T13:53:43.238Z,4.08
2022-10-15T13:56:21.844Z,5.67
2022-10-15T13:58:57.246Z,6.12
2022-10-15T14:01:28.413Z,3.55
2022-10-15T14:03:59.866Z,5.22
2022-10-15T14:06:38.792Z,6.85
2022-10-15T14:09:19.656Z,4.35
2022-10-15T14:11:48.343Z,10.75
2022-10-15T14:14:37.729Z,3.83
2022-10-15T14:17:16.539Z,3.27
2022-10-15T14:20:22.161Z,11.43
2022-10-15T14:22:31.774Z,9.05
2022-10-15T14:25:00.855Z,6.03
2022-10-15T14:27:30.804Z,6.05
2022-10-15T14:30:16.106Z,7.80
2022-10-15T14:35:35.116Z,7.30
2022-10-15T14:38:14.221Z,6.90
2022-10-15T14:41:07.698Z,6.05
2022-10-15T14:43:38.321Z,5.72
2022-10-15T14:46:09.547Z,8.95
2022-10-15T14:48:40.771Z,9.43
2022-10-15T14:51:12.461Z,5.83
2022-10-15T14:53:44.051Z,5.05
2022-10-15T14:56:21.557Z,4.45
2022-10-15T14:59:05.587Z,8.30
2022-10-15T15:01:40.938Z,7.17
2022-10-15T15:04:40.863Z,6.97
2022-10-15T15:07:34.283Z,12.00
2022-10-15T15:10:28.059Z,4.45
2022-10-15T15:12:58.340Z,6.67
2022-10-15T15:15:27.850Z,7.12
2022-10-15T15:17:56.513Z,7.87
2022-10-15T15:20:25.917Z,8.95
2022-10-15T15:22:57.907Z,3.62
2022-10-15T15:25:35.528Z,7.28
2022-10-15T15:28:04.874Z,6.53
2022-10-15T15:30:35.301Z,7.92
2022-10-15T15:33:03.957Z,5.03
2022-10-15T15:35:38.461Z,7.30
2022-10-15T15:38:10.095Z,6.62
2022-10-15T15:40:39.323Z,8.60
2022-10-15T15:43:07.918Z,5.10
2022-10-15T15:45:36.586Z,5.58
2022-10-15T15:48:05.439Z,7.92
2022-10-15T15:50:34.124Z,11.28
2022-10-15T15:53:03.469Z,5.72
2022-10-15T15:55:32.139Z,6.25
2022-10-15T15:58:00.850Z,10.58
2022-10-15T16:00:29.411Z,6.80
2022-10-15T16:02:58.341Z,5.92
2022-10-15T16:05:27.002Z,8.35
2022-10-15T16:07:57.144Z,11.65
2022-10-15T16:10:25.914Z,4.65
2022-10-15T16:12:56.282Z,14.85
2022-10-15T16:15:24.934Z,10.93
2022-10-15T16:17:53.594Z,5.42
2022-10-15T16:20:22.975Z,9.08
2022-10-15T16:22:53.050Z,10.60
2022-10-15T16:25:27.789Z,5.55
2022-10-15T16:27:57.204Z,11.18
2022-10-15T16:30:25.930Z,8.20
2022-10-15T16:32:56.784Z,8.18
2022-10-15T16:35:25.838Z,10.35
2022-10-15T16:37:57.838Z,17.35
2022-10-15T16:40:28.704Z,10.08
2022-10-15T16:43:00.448Z,5.20
2022-10-15T16:45:29.149Z,11.38
2022-10-15T16:47:57.750Z,8.45
2022-10-15T16:50:26.362Z,9.00
2022-10-15T16:52:55.052Z,8.75
2022-10-15T16:58:31.238Z,8.43
2022-10-15T17:01:06.185Z,7.60
2022-10-15T17:03:39.245Z,10.05
2022-10-15T17:06:10.465Z,10.18
2022-10-15T17:09:26.167Z,8.90
2022-10-15T17:12:58.079Z,11.95
2022-10-15T17:15:27.047Z,11.05
2022-10-15T17:17:57.187Z,12.68
2022-10-15T17:20:25.863Z,11.75
2022-10-15T17:22:54.624Z,7.92
2022-10-15T17:25:23.247Z,12.15
2022-10-15T17:27:52.621Z,6.33
2022-10-15T17:30:21.320Z,6.53
2022-10-15T17:32:50.577Z,9.08
2022-10-15T17:35:21.294Z,8.95
2022-10-15T17:37:49.961Z,26.85
2022-10-15T17:40:18.778Z,10.75
2022-10-15T17:42:47.596Z,11.75
2022-10-15T17:45:16.447Z,11.18
2022-10-15T17:47:46.598Z,12.90
2022-10-15T17:50:15.755Z,11.40
2022-10-15T17:52:44.537Z,10.05
2022-10-15T17:55:13.308Z,9.43
2022-10-15T17:57:41.995Z,17.35
2022-10-15T18:00:12.029Z,12.53
2022-10-15T18:02:40.762Z,16.65
2022-10-15T18:05:12.438Z,11.93
2022-10-15T18:07:41.528Z,18.10
2022-10-15T18:10:14.216Z,17.02
2022-10-15T18:12:42.977Z,24.07
2022-10-15T18:15:11.930Z,19.73
2022-10-15T18:17:42.036Z,21.17
2022-10-15T18:22:55.329Z,21.35
2022-10-15T18:25:23.910Z,26.15
2022-10-15T18:27:52.642Z,24.43
2022-10-15T18:30:21.839Z,14.60
2022-10-15T18:32:52.221Z,17.50
2022-10-15T18:35:21.113Z,14.73
2022-10-15T18:37:50.841Z,20.32
2022-10-15T18:40:23.219Z,19.77
2022-10-15T18:42:51.862Z,12.28
2022-10-15T18:45:20.520Z,19.95
2022-10-15T18:47:49.218Z,19.02
2022-10-15T18:50:20.955Z,16.07
2022-10-15T18:52:50.052Z,15.83
2022-10-15T18:55:20.164Z,17.42
2022-10-15T18:57:50.414Z,16.97
2022-10-15T19:00:19.129Z,17.55
2022-10-15T19:02:47.651Z,17.50
2022-10-15T19:05:19.864Z,17.77
2022-10-15T19:07:48.546Z,13.98
2022-10-15T19:10:19.794Z,29.18
2022-10-15T19:12:47.647Z,20.65
2022-10-15T19:15:16.384Z,22.02
2022-10-15T19:17:49.591Z,24.30
2022-10-15T19:20:17.320Z,21.13
2022-10-15T19:22:46.859Z,26.15
2022-10-15T19:25:16.073Z,21.37
2022-10-15T19:27:48.745Z,23.27
2022-10-15T19:30:20.459Z,23.07
2022-10-15T19:32:49.236Z,24.65
2022-10-15T19:35:19.459Z,19.57
2022-10-15T19:37:48.198Z,33.13
2022-10-15T19:40:16.965Z,23.25
2022-10-15T19:42:50.053Z,23.47
2022-10-15T19:45:18.657Z,21.12
2022-10-15T19:47:48.695Z,22.95
2022-10-15T19:50:17.399Z,22.67
2022-10-15T19:52:46.487Z,26.12
2022-10-15T19:55:15.211Z,23.55
2022-10-15T19:57:48.618Z,27.50
2022-10-15T20:00:19.823Z,24.77
2022-10-15T20:02:49.984Z,28.60
2022-10-15T20:05:21.658Z,26.85
2022-10-15T22:03:37.829Z,13.40
2022-10-15T22:06:07.398Z,10.90
2022-10-15T22:08:39.070Z,14.78
2022-10-15T22:11:16.684Z,15.50
2022-10-15T22:13:47.831Z,12.60
2022-10-15T22:16:21.481Z,12.85
2022-10-15T22:18:50.304Z,14.43
2022-10-15T22:21:27.852Z,18.32
2022-10-15T22:24:02.235Z,21.00
2022-10-15T22:26:33.696Z,21.43
2022-10-15T22:29:03.883Z,20.87
2022-10-15T22:31:33.274Z,24.27
2022-10-15T22:34:02.443Z,31.05
2022-10-15T22:36:32.593Z,34.47
2022-10-15T22:39:04.954Z,33.83
2022-10-15T22:41:50.920Z,31.73
2022-10-15T22:50:30.646Z,31.07
2022-10-15T22:53:04.757Z,29.90
2022-10-15T22:55:33.478Z,29.93
2022-10-15T22:58:02.154Z,31.90
2022-10-15T23:00:33.458Z,33.53
2022-10-15T23:39:47.880Z,27.43
2022-10-15T23:42:16.778Z,29.00
2022-10-15T23:45:27.844Z,25.73
2022-10-15T23:47:59.798Z,25.07
2022-10-15T23:50:31.426Z,27.77
2022-10-15T23:53:00.130Z,26.03
2022-10-15T23:55:28.792Z,24.23
2022-10-15T23:57:59.869Z,27.63
